Time;durP1;ratioP1;P1;durP2;ratioP2;P2;SDS_P1;SDS_P2;PMS_P1;PMS_P2;Temp;Humidity;BMP_temperature;BMP_pressure;BME280_temperature;BME280_humidity;BME280_pressure;Samples;Min_cycle;Max_cycle;Signal;HPM_P1;HPM_P2
2023/05/08 00:00:43;;;;;;;;;;;;;;;14.63;100.00;102032.06;5164811;28;20410;-78
2023/05/08 00:03:13;;;;;;;;;;;;;;;14.64;100.00;102028.34;5163697;28;20343;-79
2023/05/08 00:05:44;;;;;;;;;;;;;;;14.67;100.00;102029.88;5163054;28;19917;-78
2023/05/08 00:08:14;;;;;;;;;;;;;;;14.67;100.00;102038.84;5162275;28;19913;-78
2023/05/08 00:10:44;;;;;;;;;;;;;;;14.69;100.00;102034.09;5162418;28;19913;-78
2023/05/08 00:13:15;;;;;;;;;;;;;;;14.70;100.00;102027.69;5163740;28;19921;-78
2023/05/08 00:15:45;;;;;;;;;;;;;;;14.70;100.00;102032.25;5162006;28;19917;-79
2023/05/08 00:18:16;;;;;;;;;;;;;;;14.70;100.00;102040.34;5162615;28;19952;-78
2023/05/08 00:20:46;;;;;;;;;;;;;;;14.67;100.00;102030.72;5162142;28;20438;-78
2023/05/08 00:23:16;;;;;;;;;;;;;;;14.65;100.00;102035.44;5161090;28;19917;-78
2023/05/08 00:25:47;;;;;;;;;;;;;;;14.64;100.00;102047.25;5162607;28;19972;-78
2023/05/08 00:28:17;;;;;;;;;;;;;;;14.61;100.00;102049.41;5160746;28;19963;-78
2023/05/08 00:30:48;;;;;;;;;;;;;;;14.56;100.00;102040.97;5162488;28;19921;-78
2023/05/08 00:33:18;;;;;;;;;;;;;;;14.50;100.00;102048.72;5162663;28;20371;-78
2023/05/08 00:35:48;;;;;;;;;;;;;;;14.44;100.00;102046.63;5162709;28;19918;-78
2023/05/08 00:38:19;;;;;;;;;;;;;;;14.39;100.00;102037.34;5162618;28;19945;-78
2023/05/08 00:40:49;;;;;;;;;;;;;;;14.38;100.00;102044.59;5161171;28;19984;-78
2023/05/08 00:43:24;;;;;;;;;;;;;;;14.34;100.00;102037.81;5160998;28;19921;-78
2023/05/08 00:45:55;;;;;;;;;;;;;;;14.29;100.00;102034.75;5162572;28;20371;-78
2023/05/08 00:48:44;;;;;;;;;;;;;;;14.27;100.00;102044.03;5159378;28;19918;-78
2023/05/08 00:51:15;;;;;;;;;;;;;;;14.21;100.00;102037.44;5159528;28;19914;-78
2023/05/08 00:53:46;;;;;;;;;;;;;;;14.19;100.00;102039.44;5160344;28;19914;-78
2023/05/08 00:56:17;;;;;;;;;;;;;;;14.16;100.00;102045.19;5161142;28;19921;-79
2023/05/08 00:58:48;;;;;;;;;;;;;;;14.10;100.00;102041.25;5161583;28;20400;-78
2023/05/08 01:01:19;;;;;;;;;;;;;;;14.08;100.00;102054.06;5162148;28;20414;-78
2023/05/08 01:03:50;;;;;;;;;;;;;;;14.06;100.00;102041.75;5161230;28;19949;-79
2023/05/08 01:06:20;;;;;;;;;;;;;;;14.04;100.00;102052.69;5159234;28;20000;-78
2023/05/08 01:08:50;;;;;;;;;;;;;;;13.99;100.00;102046.91;5159544;28;19918;-78
2023/05/08 01:11:23;;;;;;;;;;;;;;;13.94;100.00;102052.78;5161706;28;20134;-78
2023/05/08 01:14:13;;;;;;;;;;;;;;;13.89;100.00;102044.31;5161472;28;19917;-78
2023/05/08 01:16:45;;;;;;;;;;;;;;;13.81;100.00;102041.59;5161244;28;19918;-78
2023/05/08 01:19:34;;;;;;;;;;;;;;;13.75;100.00;102036.81;5160006;28;19918;-78
2023/05/08 01:22:04;;;;;;;;;;;;;;;13.67;100.00;102040.31;5158820;28;19914;-78
2023/05/08 01:24:36;;;;;;;;;;;;;;;13.65;100.00;102041.44;5160395;28;20401;-78
2023/05/08 01:27:07;;;;;;;;;;;;;;;13.64;100.00;102046.00;5161282;28;20017;-79
2023/05/08 01:29:56;;;;;;;;;;;;;;;13.67;100.00;102051.09;5160734;28;20008;-79
2023/05/08 01:32:31;;;;;;;;;;;;;;;13.77;100.00;102053.69;5160406;28;19925;-78
2023/05/08 01:35:20;;;;;;;;;;;;;;;13.80;100.00;102063.31;5160445;28;20040;-78
2023/05/08 01:37:57;;;;;;;;;;;;;;;13.87;100.00;102059.84;5147186;28;19921;-78
2023/05/08 01:40:46;;;;;;;;;;;;;;;13.91;100.00;102060.38;5159586;28;20294;-78
2023/05/08 01:43:29;;;;;;;;;;;;;;;13.94;100.00;102060.03;5159083;28;19927;-78
2023/05/08 01:46:08;;;;;;;;;;;;;;;13.95;100.00;102057.16;5148138;28;19918;-78
2023/05/08 01:48:43;;;;;;;;;;;;;;;14.00;100.00;102054.84;5159838;28;20358;-78
2023/05/08 01:51:18;;;;;;;;;;;;;;;14.03;100.00;102060.94;5160436;28;20012;-78
2023/05/08 01:53:51;;;;;;;;;;;;;;;14.10;100.00;102068.22;5160645;28;19949;-78
2023/05/08 01:56:23;;;;;;;;;;;;;;;14.10;100.00;102057.44;5158935;28;19918;-78
2023/05/08 01:58:54;;;;;;;;;;;;;;;14.22;100.00;102061.56;5158429;28;20394;-78
2023/05/08 02:01:28;;;;;;;;;;;;;;;14.24;100.00;102064.09;5158489;28;19925;-78
2023/05/08 02:04:00;;;;;;;;;;;;;;;14.33;100.00;102073.94;5159765;28;20013;-78
2023/05/08 02:06:31;;;;;;;;;;;;;;;14.40;100.00;102063.31;5159329;28;19918;-78
2023/05/08 02:09:01;;;;;;;;;;;;;;;14.35;100.00;102071.06;5160796;28;19922;-78
2023/05/08 02:11:39;;;;;;;;;;;;;;;14.33;100.00;102059.59;5159471;28;20438;-78
2023/05/08 02:14:11;;;;;;;;;;;;;;;14.36;100.00;102065.53;5161740;28;20408;-77
2023/05/08 02:16:42;;;;;;;;;;;;;;;14.33;100.00;102067.69;5160529;28;20013;-78
2023/05/08 02:19:13;;;;;;;;;;;;;;;14.34;100.00;102072.06;5160395;28;19917;-78
2023/05/08 02:21:45;;;;;;;;;;;;;;;14.34;100.00;102070.22;5160560;28;19914;-77
2023/05/08 02:24:16;;;;;;;;;;;;;;;14.31;100.00;102072.38;5158547;28;19917;-78
2023/05/08 02:26:47;;;;;;;;;;;;;;;14.30;100.00;102073.41;5158536;28;19920;-77
2023/05/08 02:29:18;;;;;;;;;;;;;;;14.31;100.00;102066.97;5158570;28;19932;-78
2023/05/08 02:31:49;;;;;;;;;;;;;;;14.33;100.00;102073.09;5159572;28;20277;-78
2023/05/08 02:34:20;;;;;;;;;;;;;;;14.35;100.00;102073.75;5159225;28;19984;-78
2023/05/08 02:36:51;;;;;;;;;;;;;;;14.33;100.00;102073.94;5160743;28;19910;-78
2023/05/08 02:39:24;;;;;;;;;;;;;;;14.34;100.00;102081.00;5160509;28;19953;-78
2023/05/08 02:41:54;;;;;;;;;;;;;;;14.30;100.00;102076.09;5161140;28;19914;-78
2023/05/08 02:44:25;;;;;;;;;;;;;;;14.31;100.00;102075.06;5165228;28;19920;-78
2023/05/08 02:47:11;;;;;;;;;;;;;;;14.33;100.00;102075.78;5164639;28;19913;-78
2023/05/08 02:49:41;;;;;;;;;;;;;;;14.36;100.00;102073.63;5164958;28;20308;-78
2023/05/08 02:52:13;;;;;;;;;;;;;;;14.35;100.00;102071.06;5165660;28;19918;-78
2023/05/08 02:55:02;;;;;;;;;;;;;;;14.39;100.00;102080.53;5165444;28;19929;-78
2023/05/08 02:57:51;;;;;;;;;;;;;;;14.37;100.00;102069.91;5165689;28;20003;-78
2023/05/08 03:00:23;;;;;;;;;;;;;;;14.36;100.00;102067.38;5165388;28;19914;-78
2023/05/08 03:02:58;;;;;;;;;;;;;;;14.40;100.00;102060.63;5166111;28;19913;-78
2023/05/08 03:05:30;;;;;;;;;;;;;;;14.43;100.00;102071.94;5154521;28;19913;-78
2023/05/08 03:08:04;;;;;;;;;;;;;;;14.47;100.00;102069.78;5166670;28;20383;-77
2023/05/08 03:10:35;;;;;;;;;;;;;;;14.45;100.00;102071.78;5166514;28;19917;-78
2023/05/08 03:13:08;;;;;;;;;;;;;;;14.41;100.00;102070.44;5164507;28;19913;-78
2023/05/08 03:15:54;;;;;;;;;;;;;;;14.38;100.00;102077.00;5166392;28;19918;-78
2023/05/08 03:18:27;;;;;;;;;;;;;;;14.38;100.00;102082.38;5164941;28;19918;-78
2023/05/08 03:20:58;;;;;;;;;;;;;;;14.37;100.00;102075.31;5163816;28;20291;-78
2023/05/08 03:23:30;;;;;;;;;;;;;;;14.35;100.00;102071.06;5165795;28;19921;-78
2023/05/08 03:26:01;;;;;;;;;;;;;;;14.31;100.00;102073.25;5166425;28;19918;-78
2023/05/08 03:28:34;;;;;;;;;;;;;;;14.32;100.00;102068.69;5164869;28;19914;-78
2023/05/08 03:31:05;;;;;;;;;;;;;;;14.34;100.00;102069.38;5166006;28;19937;-78
2023/05/08 03:33:37;;;;;;;;;;;;;;;14.33;100.00;102063.13;5165200;28;20366;-78
2023/05/08 03:36:08;;;;;;;;;;;;;;;14.34;100.00;102063.97;5166013;28;19984;-78
2023/05/08 03:38:39;;;;;;;;;;;;;;;14.36;100.00;102068.22;5165824;28;19914;-78
2023/05/08 03:41:09;;;;;;;;;;;;;;;14.40;100.00;102071.41;5163471;28;19956;-78
2023/05/08 03:43:40;;;;;;;;;;;;;;;14.39;100.00;102067.88;5164619;28;19913;-78
2023/05/08 03:46:11;;;;;;;;;;;;;;;14.42;100.00;102072.97;5162652;28;19914;-78
2023/05/08 03:48:42;;;;;;;;;;;;;;;14.42;100.00;102069.41;5165058;28;20298;-78
2023/05/08 03:51:14;;;;;;;;;;;;;;;14.40;100.00;102064.16;5165804;28;19914;-78
2023/05/08 03:53:45;;;;;;;;;;;;;;;14.43;100.00;102063.84;5162972;28;19961;-78
2023/05/08 03:56:16;;;;;;;;;;;;;;;14.38;100.00;102063.50;5166054;28;20431;-78
2023/05/08 03:58:49;;;;;;;;;;;;;;;14.45;100.00;102066.38;5164515;28;19918;-78
2023/05/08 04:01:36;;;;;;;;;;;;;;;14.46;100.00;102062.69;5164302;28;19941;-78
2023/05/08 04:04:09;;;;;;;;;;;;;;;14.40;100.00;102050.66;5165240;28;19924;-78
2023/05/08 04:06:44;;;;;;;;;;;;;;;14.35;100.00;102053.00;5147722;28;20004;-78
2023/05/08 04:09:14;;;;;;;;;;;;;;;14.50;100.00;102059.50;5164596;28;19922;-78
2023/05/08 04:11:56;;;;;;;;;;;;;;;14.58;100.00;102055.16;5163376;28;20032;-78
2023/05/08 04:14:29;;;;;;;;;;;;;;;14.58;100.00;102058.72;5164056;28;19930;-78
2023/05/08 04:17:02;;;;;;;;;;;;;;;14.54;100.00;102053.81;5162051;28;19922;-78
2023/05/08 04:19:35;;;;;;;;;;;;;;;14.53;100.00;102071.00;5162780;28;20400;-78
2023/05/08 04:22:06;;;;;;;;;;;;;;;14.54;100.00;102067.31;5163612;28;19914;-78
2023/05/08 04:24:40;;;;;;;;;;;;;;;14.55;100.00;102061.72;5164940;28;19920;-78
2023/05/08 04:27:11;;;;;;;;;;;;;;;14.56;100.00;102068.84;5164911;28;19995;-78
2023/05/08 04:29:42;;;;;;;;;;;;;;;14.57;100.00;102064.28;5164324;28;19945;-78
2023/05/08 04:32:13;;;;;;;;;;;;;;;14.58;100.00;102076.78;5165508;28;19918;-78
2023/05/08 04:34:43;;;;;;;;;;;;;;;14.58;100.00;102076.78;5162513;28;19918;-78
2023/05/08 04:37:27;;;;;;;;;;;;;;;14.61;100.00;102074.59;5178867;28;20393;-78
2023/05/08 04:39:58;;;;;;;;;;;;;;;14.65;100.00;102073.25;5165213;28;19929;-78
2023/05/08 04:42:29;;;;;;;;;;;;;;;14.64;100.00;102079.66;5163692;28;19949;-78
2023/05/08 04:44:59;;;;;;;;;;;;;;;14.65;100.00;102084.03;5162125;28;19964;-78
2023/05/08 04:47:30;;;;;;;;;;;;;;;14.63;100.00;102083.38;5159602;28;20288;-78
2023/05/08 04:50:00;;;;;;;;;;;;;;;14.62;100.00;102081.69;5161042;28;19922;-78
2023/05/08 04:52:31;;;;;;;;;;;;;;;14.59;100.00;102083.88;5163844;28;19936;-78
2023/05/08 04:55:01;;;;;;;;;;;;;;;14.59;100.00;102087.41;5161757;28;20272;-78
2023/05/08 04:57:32;;;;;;;;;;;;;;;14.57;100.00;102091.28;5161527;28;20319;-77
2023/05/08 05:00:04;;;;;;;;;;;;;;;14.54;100.00;102089.75;5161249;28;19920;-78
2023/05/08 05:02:35;;;;;;;;;;;;;;;14.52;100.00;102093.63;5163745;28;19921;-77
2023/05/08 05:05:05;;;;;;;;;;;;;;;14.53;100.00;102096.16;5161744;28;19921;-78
2023/05/08 05:07:36;;;;;;;;;;;;;;;14.55;100.00;102094.13;5162365;28;19921;-78
2023/05/08 05:10:06;;;;;;;;;;;;;;;14.52;100.00;102101.72;5162693;28;19922;-78
2023/05/08 05:12:37;;;;;;;;;;;;;;;14.45;100.00;102106.88;5163145;28;19918;-78
2023/05/08 05:15:07;;;;;;;;;;;;;;;14.45;100.00;102112.28;5162869;28;19917;-78
2023/05/08 05:17:38;;;;;;;;;;;;;;;14.48;100.00;102109.31;5162003;28;19914;-78
2023/05/08 05:20:09;;;;;;;;;;;;;;;14.53;100.00;102112.38;5161133;28;19964;-78
2023/05/08 05:22:39;;;;;;;;;;;;;;;14.56;100.00;102124.69;5162618;28;19922;-78
2023/05/08 05:25:10;;;;;;;;;;;;;;;14.54;100.00;102121.31;5161725;28;19996;-78
2023/05/08 05:27:40;;;;;;;;;;;;;;;14.56;100.00;102133.66;5161433;28;20350;-78
2023/05/08 05:30:11;;;;;;;;;;;;;;;14.50;100.00;102134.28;5161809;28;20306;-78
2023/05/08 05:32:41;;;;;;;;;;;;;;;14.49;100.00;102138.84;5160979;28;19952;-78
2023/05/08 05:35:12;;;;;;;;;;;;;;;14.50;100.00;102145.06;5161435;28;19914;-78
2023/05/08 05:37:42;;;;;;;;;;;;;;;14.52;100.00;102140.38;5161847;28;19952;-77
2023/05/08 05:40:13;;;;;;;;;;;;;;;14.60;100.00;102144.97;5145022;28;20041;-78
2023/05/08 05:42:47;;;;;;;;;;;;;;;14.59;100.00;102149.53;5162633;28;19921;-78
2023/05/08 05:45:18;;;;;;;;;;;;;;;14.63;100.00;102153.59;5161501;28;19917;-78
2023/05/08 05:47:48;;;;;;;;;;;;;;;14.67;100.00;102146.03;5162637;28;19920;-78
2023/05/08 05:50:20;;;;;;;;;;;;;;;14.77;100.00;102149.44;5160938;28;19964;-78
2023/05/08 05:52:50;;;;;;;;;;;;;;;14.68;100.00;102155.81;5161654;28;20466;-78
2023/05/08 05:55:21;;;;;;;;;;;;;;;14.76;100.00;102154.00;5162650;28;20017;-78
2023/05/08 05:57:51;;;;;;;;;;;;;;;14.73;100.00;102157.03;5160749;28;19913;-78
2023/05/08 06:00:21;;;;;;;;;;;;;;;14.81;100.00;102156.22;5160180;28;19914;-78
2023/05/08 06:02:52;;;;;;;;;;;;;;;14.85;100.00;102160.28;5162375;28;19953;-80
2023/05/08 06:05:22;;;;;;;;;;;;;;;14.66;100.00;102158.69;5163055;28;20012;-78
2023/05/08 06:07:53;;;;;;;;;;;;;;;14.76;100.00;102161.28;5162056;28;19997;-78
2023/05/08 06:10:23;;;;;;;;;;;;;;;14.85;100.00;102164.84;5162449;28;20021;-77
2023/05/08 06:12:54;;;;;;;;;;;;;;;14.91;100.00;102169.56;5161366;28;19976;-79
2023/05/08 06:15:24;;;;;;;;;;;;;;;14.72;100.00;102166.13;5162455;28;19918;-78
2023/05/08 06:17:54;;;;;;;;;;;;;;;14.69;100.00;102166.44;5165366;28;19949;-79
2023/05/08 06:20:25;;;;;;;;;;;;;;;14.77;100.00;102166.50;5169876;28;19936;-79
2023/05/08 06:22:55;;;;;;;;;;;;;;;14.71;100.00;102169.00;5167952;28;19918;-78
2023/05/08 06:25:27;;;;;;;;;;;;;;;14.69;100.00;102171.84;5167673;28;20008;-77
2023/05/08 06:27:57;;;;;;;;;;;;;;;14.94;100.00;102169.25;5166257;28;19972;-78
2023/05/08 06:30:27;;;;;;;;;;;;;;;14.93;100.00;102152.22;5166397;28;19949;-78
2023/05/08 06:32:58;;;;;;;;;;;;;;;14.94;100.00;102161.16;5166692;28;19941;-76
2023/05/08 06:35:28;;;;;;;;;;;;;;;14.97;100.00;102163.53;5166221;28;19921;-78
2023/05/08 06:37:58;;;;;;;;;;;;;;;14.98;100.00;102165.22;5167020;28;20006;-77
2023/05/08 06:40:29;;;;;;;;;;;;;;;14.99;100.00;102166.91;5166657;28;19918;-77
2023/05/08 06:42:59;;;;;;;;;;;;;;;15.00;100.00;102165.91;5149506;28;19972;-78
2023/05/08 06:45:30;;;;;;;;;;;;;;;15.05;100.00;102160.00;5166050;28;20384;-77
2023/05/08 06:48:00;;;;;;;;;;;;;;;15.12;100.00;102159.22;5165388;28;19913;-77
2023/05/08 06:50:31;;;;;;;;;;;;;;;15.18;100.00;102171.22;5165557;28;19918;-77
2023/05/08 06:53:01;;;;;;;;;;;;;;;15.19;100.00;102167.50;5166171;28;19913;-77
2023/05/08 06:55:32;;;;;;;;;;;;;;;15.21;100.00;102165.47;5166258;28;19914;-78
2023/05/08 06:58:02;;;;;;;;;;;;;;;15.20;100.00;102164.63;5164706;28;20339;-76
2023/05/08 07:00:33;;;;;;;;;;;;;;;15.27;100.00;102170.22;5166963;28;19921;-78
2023/05/08 07:03:03;;;;;;;;;;;;;;;15.33;100.00;102168.72;5169395;28;19922;-76
2023/05/08 07:05:34;;;;;;;;;;;;;;;15.40;100.00;102167.03;5168234;28;19926;-77
2023/05/08 07:08:04;;;;;;;;;;;;;;;15.48;100.00;102165.19;5164805;28;20482;-78
2023/05/08 07:10:34;;;;;;;;;;;;;;;15.58;100.00;102159.63;5168247;28;19918;-78
2023/05/08 07:13:05;;;;;;;;;;;;;;;15.62;100.00;102160.16;5168318;28;19967;-77
2023/05/08 07:15:35;;;;;;;;;;;;;;;15.69;100.00;102161.19;5168415;28;20000;-78
2023/05/08 07:18:06;;;;;;;;;;;;;;;15.70;100.00;102163.72;5168363;28;20289;-78
2023/05/08 07:20:36;;;;;;;;;;;;;;;15.72;100.00;102160.88;5168839;28;19914;-77
2023/05/08 07:23:06;;;;;;;;;;;;;;;15.74;100.00;102156.13;5169169;28;19956;-77
2023/05/08 07:25:37;;;;;;;;;;;;;;;15.74;100.00;102159.69;5167675;28;20298;-77
2023/05/08 07:28:07;;;;;;;;;;;;;;;15.72;100.00;102158.16;5167866;28;19918;-77
2023/05/08 07:30:38;;;;;;;;;;;;;;;15.65;100.00;102155.28;5165787;28;19921;-78
2023/05/08 07:33:08;;;;;;;;;;;;;;;15.69;100.00;102164.75;5162915;28;19925;-78
2023/05/08 07:35:39;;;;;;;;;;;;;;;15.74;100.00;102167.78;5164618;28;20024;-77
2023/05/08 07:38:09;;;;;;;;;;;;;;;15.63;100.00;102160.00;5165384;28;19917;-77
2023/05/08 07:40:40;;;;;;;;;;;;;;;15.72;100.00;102161.72;5163493;28;20006;-79
2023/05/08 07:43:12;;;;;;;;;;;;;;;15.82;100.00;102163.41;5165282;28;19914;-78
2023/05/08 07:45:42;;;;;;;;;;;;;;;15.79;100.00;102162.72;5165395;28;19917;-78
2023/05/08 07:48:12;;;;;;;;;;;;;;;15.86;100.00;102162.03;5164492;28;19913;-77
2023/05/08 07:50:43;;;;;;;;;;;;;;;15.85;100.00;102163.06;5164561;28;20295;-78
2023/05/08 07:53:13;;;;;;;;;;;;;;;15.76;100.00;102171.19;5163460;28;19914;-77
2023/05/08 07:55:44;;;;;;;;;;;;;;;15.73;100.00;102166.09;5164713;28;19914;-77
2023/05/08 07:58:14;;;;;;;;;;;;;;;15.63;100.00;102168.13;5162974;28;19920;-78
2023/05/08 08:00:45;;;;;;;;;;;;;;;15.60;100.00;102175.69;5164658;28;19913;-77
2023/05/08 08:03:16;;;;;;;;;;;;;;;15.54;100.00;102186.16;5164860;28;19953;-77
2023/05/08 08:05:46;;;;;;;;;;;;;;;15.46;100.00;102179.88;5164371;28;19929;-80
2023/05/08 08:08:17;;;;;;;;;;;;;;;15.55;100.00;102181.59;5162673;28;19972;-78
2023/05/08 08:10:47;;;;;;;;;;;;;;;15.60;100.00;102183.81;5164295;28;20406;-77
2023/05/08 08:13:18;;;;;;;;;;;;;;;15.50;100.00;102186.66;5155007;28;19925;-78
2023/05/08 08:15:49;;;;;;;;;;;;;;;15.37;100.00;102187.16;5160012;28;19992;-77
2023/05/08 08:18:19;;;;;;;;;;;;;;;15.57;100.00;102195.81;5159680;28;19986;-77
2023/05/08 08:20:50;;;;;;;;;;;;;;;15.51;100.00;102191.06;5161812;28;19914;-77
2023/05/08 08:23:20;;;;;;;;;;;;;;;15.61;100.00;102190.91;5160619;28;19996;-77
2023/05/08 08:25:52;;;;;;;;;;;;;;;15.72;100.00;102183.34;5160587;28;19917;-77
2023/05/08 08:28:22;;;;;;;;;;;;;;;15.96;100.00;102187.06;5160124;28;19917;-78
2023/05/08 08:30:53;;;;;;;;;;;;;;;16.10;100.00;102189.09;5160964;28;19928;-78
2023/05/08 08:33:23;;;;;;;;;;;;;;;16.53;100.00;102179.75;5160040;28;19918;-77
2023/05/08 08:35:54;;;;;;;;;;;;;;;16.81;100.00;102173.91;5156662;28;19914;-78
2023/05/08 08:38:24;;;;;;;;;;;;;;;17.12;100.00;102164.97;5152593;28;19920;-77
2023/05/08 08:40:55;;;;;;;;;;;;;;;17.48;100.00;102168.00;5160182;28;19953;-77
2023/05/08 08:43:25;;;;;;;;;;;;;;;17.67;100.00;102156.69;5159777;28;20391;-78
2023/05/08 08:45:58;;;;;;;;;;;;;;;17.71;100.00;102157.97;5148970;28;19914;-78
2023/05/08 08:48:29;;;;;;;;;;;;;;;17.70;100.00;102169.88;5159958;28;19925;-78
2023/05/08 08:51:01;;;;;;;;;;;;;;;17.69;100.00;102168.19;5159869;28;19964;-78
2023/05/08 08:53:36;;;;;;;;;;;;;;;17.73;100.00;102161.41;5160108;28;19918;-78
2023/05/08 08:56:07;;;;;;;;;;;;;;;17.98;100.00;102163.91;5160336;28;20000;-78
2023/05/08 08:58:45;;;;;;;;;;;;;;;17.96;100.00;102164.06;5160136;28;19925;-78
2023/05/08 09:01:17;;;;;;;;;;;;;;;17.98;100.00;102164.75;5159587;28;19914;-79
2023/05/08 09:03:50;;;;;;;;;;;;;;;18.03;100.00;102161.50;5143135;28;21275;-78
2023/05/08 09:06:20;;;;;;;;;;;;;;;18.33;100.00;102174.09;5160452;28;19917;-78
2023/05/08 09:08:53;;;;;;;;;;;;;;;18.25;100.00;102166.03;5159625;28;19945;-78
2023/05/08 09:11:26;;;;;;;;;;;;;;;18.38;100.00;102168.97;5160536;28;19918;-79
2023/05/08 09:13:57;;;;;;;;;;;;;;;18.65;100.00;102172.06;5159936;28;19913;-79
2023/05/08 09:16:27;;;;;;;;;;;;;;;18.92;100.00;102175.16;5160004;28;19918;-78
2023/05/08 09:18:57;;;;;;;;;;;;;;;18.48;100.00;102171.41;5159662;28;19924;-78
2023/05/08 09:21:28;;;;;;;;;;;;;;;18.70;100.00;102168.81;5159670;28;19937;-78
2023/05/08 09:23:59;;;;;;;;;;;;;;;18.67;100.00;102164.53;5159176;28;19914;-78
2023/05/08 09:26:32;;;;;;;;;;;;;;;18.84;100.00;102165.25;5158884;28;20028;-79
2023/05/08 09:29:20;;;;;;;;;;;;;;;18.73;100.00;102160.28;5158458;28;20429;-80
2023/05/08 09:31:51;;;;;;;;;;;;;;;18.81;100.00;102163.72;5159008;28;19965;-78
2023/05/08 09:34:26;;;;;;;;;;;;;;;19.27;100.00;102154.47;5158839;28;19918;-78
2023/05/08 09:36:56;;;;;;;;;;;;;;;19.61;100.00;102154.66;5157429;28;19963;-78
2023/05/08 09:39:28;;;;;;;;;;;;;;;19.65;100.00;102160.56;5159708;28;20009;-78
2023/05/08 09:41:59;;;;;;;;;;;;;;;19.58;100.00;102154.19;5157686;28;19940;-79
2023/05/08 09:44:45;;;;;;;;;;;;;;;19.56;100.00;102150.78;5160672;28;19921;-78
2023/05/08 09:47:19;;;;;;;;;;;;;;;19.61;100.00;102146.47;5161531;28;19914;-78
2023/05/08 09:50:01;;;;;;;;;;;;;;;19.73;100.00;102143.22;5163267;28;19918;-77
2023/05/08 09:52:32;;;;;;;;;;;;;;;19.30;100.00;102149.47;5161855;28;20354;-78
2023/05/08 09:55:04;;;;;;;;;;;;;;;19.33;100.00;102148.25;5162545;28;19914;-77
2023/05/08 09:57:37;;;;;;;;;;;;;;;20.03;100.00;102139.31;5160709;28;20277;-78
2023/05/08 10:00:09;;;;;;;;;;;;;;;20.04;100.00;102140.16;5161287;28;19914;-77
2023/05/08 10:02:40;;;;;;;;;;;;;;;19.91;100.00;102141.72;5161106;28;20013;-78
2023/05/08 10:05:23;;;;;;;;;;;;;;;19.79;100.00;102146.03;5160853;28;20375;-78
2023/05/08 10:07:55;;;;;;;;;;;;;;;20.00;100.00;102138.88;5158556;28;20279;-77
2023/05/08 10:10:26;;;;;;;;;;;;;;;20.31;100.00;102141.19;5161178;28;19922;-77
2023/05/08 10:12:57;;;;;;;;;;;;;;;19.97;100.00;102140.09;5158296;28;19921;-77
2023/05/08 10:15:30;;;;;;;;;;;;;;;20.03;100.00;102152.06;5160856;28;19968;-77
2023/05/08 10:18:01;;;;;;;;;;;;;;;20.21;100.00;102149.72;5157718;28;20364;-77
2023/05/08 10:20:32;;;;;;;;;;;;;;;20.22;100.00;102151.38;5158848;28;19925;-77
2023/05/08 10:23:05;;;;;;;;;;;;;;;20.25;100.00;102153.72;5158919;28;19917;-77
2023/05/08 10:25:40;;;;;;;;;;;;;;;20.18;100.00;102153.69;5158951;28;19914;-77
2023/05/08 10:28:15;;;;;;;;;;;;;;;20.14;100.00;102154.28;5158443;28;19913;-77
2023/05/08 10:30:47;;;;;;;;;;;;;;;20.29;100.00;102149.56;5158557;28;19928;-77
2023/05/08 10:33:19;;;;;;;;;;;;;;;20.18;100.00;102152.81;5159517;28;19926;-77
2023/05/08 10:35:50;;;;;;;;;;;;;;;20.27;100.00;102145.34;5159583;28;19917;-77
2023/05/08 10:38:22;;;;;;;;;;;;;;;20.43;100.00;102145.91;5174949;28;20279;-78
2023/05/08 10:40:56;;;;;;;;;;;;;;;20.55;100.00;102142.63;5161610;28;19918;-78
2023/05/08 10:43:28;;;;;;;;;;;;;;;20.36;100.00;102135.97;5160202;28;19960;-77
2023/05/08 10:46:01;;;;;;;;;;;;;;;20.27;100.00;102135.28;5161624;28;19921;-77
2023/05/08 10:48:50;;;;;;;;;;;;;;;20.29;100.00;102135.94;5158861;28;19918;-77
2023/05/08 10:51:25;;;;;;;;;;;;;;;20.21;100.00;102133.38;5158479;28;19924;-77
2023/05/08 10:54:00;;;;;;;;;;;;;;;20.32;100.00;102127.34;5159286;28;20009;-77
2023/05/08 10:56:30;;;;;;;;;;;;;;;20.09;100.00;102127.63;5157011;28;20114;-77
2023/05/08 10:59:02;;;;;;;;;;;;;;;20.23;100.00;102127.72;5159572;28;19914;-77
2023/05/08 11:01:37;;;;;;;;;;;;;;;20.38;100.00;102123.84;5140178;28;20009;-77
2023/05/08 11:04:19;;;;;;;;;;;;;;;20.49;100.00;102118.91;5161659;28;19960;-77
2023/05/08 11:06:51;;;;;;;;;;;;;;;20.49;100.00;102117.03;5160450;28;19914;-76
2023/05/08 11:09:26;;;;;;;;;;;;;;;20.63;100.00;102112.47;5163134;28;19988;-77
2023/05/08 11:12:12;;;;;;;;;;;;;;;20.91;100.00;102110.50;5160948;28;19914;-77
2023/05/08 11:14:43;;;;;;;;;;;;;;;21.51;100.00;102109.84;5163562;28;19914;-77
2023/05/08 11:17:21;;;;;;;;;;;;;;;21.87;100.00;102115.72;5158565;28;20000;-77
2023/05/08 11:20:07;;;;;;;;;;;;;;;21.71;100.00;102113.44;5160735;28;19914;-77
2023/05/08 11:22:46;;;;;;;;;;;;;;;21.39;100.00;102107.75;5158277;28;19918;-77
2023/05/08 11:25:17;;;;;;;;;;;;;;;21.26;100.00;102104.94;5162008;28;19937;-77
2023/05/08 11:27:47;;;;;;;;;;;;;;;21.19;100.00;102106.81;5160252;28;20551;-77
2023/05/08 11:30:35;;;;;;;;;;;;;;;21.46;100.00;102103.13;5161462;28;19918;-77
2023/05/08 11:33:05;;;;;;;;;;;;;;;21.45;100.00;102098.72;5160842;28;19918;-77
2023/05/08 11:35:54;;;;;;;;;;;;;;;21.46;100.00;102096.81;5160820;28;19967;-77
2023/05/08 11:38:27;;;;;;;;;;;;;;;21.73;100.00;102097.66;5160599;28;19913;-77
2023/05/08 11:41:16;;;;;;;;;;;;;;;21.92;100.00;102101.44;5161322;28;20287;-77
2023/05/08 11:44:08;;;;;;;;;;;;;;;22.14;100.00;102089.28;5154136;28;20295;-77
2023/05/08 11:46:41;;;;;;;;;;;;;;;22.21;100.00;102087.34;5155459;28;20012;-77
2023/05/08 11:49:13;;;;;;;;;;;;;;;21.98;100.00;102090.50;5150155;28;19945;-77
2023/05/08 11:51:45;;;;;;;;;;;;;;;21.65;100.00;102084.22;5163995;28;19957;-77
2023/05/08 11:54:17;;;;;;;;;;;;;;;21.54;100.00;102090.34;5164269;28;19920;-78
2023/05/08 11:56:48;;;;;;;;;;;;;;;21.30;100.00;102086.28;5162809;28;19938;-77
2023/05/08 11:59:18;;;;;;;;;;;;;;;21.06;100.00;102085.78;5162702;28;20558;-77
2023/05/08 12:01:49;;;;;;;;;;;;;;;20.96;100.00;102077.16;5161291;28;19914;-77
2023/05/08 12:04:20;;;;;;;;;;;;;;;20.80;100.00;102072.06;5163806;28;19914;-78
2023/05/08 12:06:55;;;;;;;;;;;;;;;20.86;100.00;102071.25;5160501;28;19918;-78
2023/05/08 12:09:26;;;;;;;;;;;;;;;20.87;100.00;102068.31;5161222;28;20276;-77
2023/05/08 12:11:56;;;;;;;;;;;;;;;21.11;100.00;102071.53;5161559;28;19940;-77
2023/05/08 12:14:27;;;;;;;;;;;;;;;21.12;100.00;102065.03;5161672;28;19920;-77
2023/05/08 12:16:57;;;;;;;;;;;;;;;21.57;100.00;102062.59;5162067;28;19925;-78
2023/05/08 12:19:28;;;;;;;;;;;;;;;21.87;100.00;102060.25;5162112;28;19940;-78
2023/05/08 12:21:59;;;;;;;;;;;;;;;21.89;100.00;102060.91;5162459;28;19992;-78
2023/05/08 12:24:29;;;;;;;;;;;;;;;21.80;100.00;102056.72;5161217;28;20057;-78
2023/05/08 12:27:00;;;;;;;;;;;;;;;21.66;100.00;102055.88;5162770;28;20011;-78
2023/05/08 12:29:34;;;;;;;;;;;;;;;21.71;100.00;102056.91;5161053;28;19922;-77
2023/05/08 12:32:04;;;;;;;;;;;;;;;21.52;100.00;102051.44;5159502;28;19932;-77
2023/05/08 12:34:35;;;;;;;;;;;;;;;21.58;100.00;102050.59;5161612;28;20276;-77
2023/05/08 12:37:05;;;;;;;;;;;;;;;21.58;100.00;102051.44;5161015;28;19914;-76
2023/05/08 12:39:36;;;;;;;;;;;;;;;21.58;100.00;102048.72;5161725;28;20286;-77
2023/05/08 12:42:06;;;;;;;;;;;;;;;21.55;100.00;102045.59;5176424;28;19925;-77
2023/05/08 12:44:37;;;;;;;;;;;;;;;21.43;100.00;102038.00;5162407;28;19936;-77
2023/05/08 12:47:07;;;;;;;;;;;;;;;21.47;100.00;102038.44;5158971;28;19917;-77
2023/05/08 12:49:37;;;;;;;;;;;;;;;21.37;100.00;102043.47;5161186;28;19922;-77
2023/05/08 12:52:11;;;;;;;;;;;;;;;21.49;100.00;102032.75;5143859;28;20497;-78
2023/05/08 12:54:56;;;;;;;;;;;;;;;21.90;100.00;102038.84;5163138;28;19914;-78